Time;durP1;ratioP1;P1;durP2;ratioP2;P2;SDS_P1;SDS_P2;PMS_P1;PMS_P2;Temp;Humidity;BMP_temperature;BMP_pressure;BME280_temperature;BME280_humidity;BME280_pressure;Samples;Min_cycle;Max_cycle;Signal;HPM_P1;HPM_P2
2020/12/22 00:00:49;;;;;;;0.68;0.57;;;10.40;96.30;;;14.60;78.88;100551.94;4997463;28;98027;-76
2020/12/22 00:03:16;;;;;;;1.50;0.98;;;10.40;96.30;;;14.69;78.64;100565.34;4998191;28;96746;-75
2020/12/22 00:05:45;;;;;;;2.50;1.77;;;10.50;96.40;;;14.71;78.38;100558.50;5001447;28;96855;-75
2020/12/22 00:08:13;;;;;;;1.08;0.57;;;10.60;96.40;;;14.79;78.07;100554.13;4998522;28;96981;-76
2020/12/22 00:10:42;;;;;;;1.05;1.02;;;10.60;96.40;;;14.81;78.54;100557.28;4998453;28;97784;-75
2020/12/22 00:13:09;;;;;;;2.08;1.30;;;10.60;96.40;;;14.86;78.17;100538.97;4999687;28;96688;-75
2020/12/22 00:15:41;;;;;;;0.80;0.80;;;10.70;96.40;;;14.85;78.04;100539.28;4999874;28;97590;-75
2020/12/22 00:18:08;;;;;;;0.60;0.60;;;10.70;96.30;;;14.88;78.00;100552.91;4996324;28;96974;-75
2020/12/22 00:20:36;;;;;;;2.00;1.15;;;10.70;96.30;;;14.92;78.20;100553.81;4996852;28;96899;-75
2020/12/22 00:23:05;;;;;;;0.82;0.82;;;10.80;96.30;;;14.99;78.22;100551.34;4997818;28;96794;-75
2020/12/22 00:25:33;;;;;;;0.52;0.50;;;10.80;96.30;;;15.04;78.47;100539.56;4998261;28;96750;-75
2020/12/22 00:28:02;;;;;;;0.60;0.60;;;10.80;96.30;;;15.05;78.37;100535.75;4998833;28;96959;-74
2020/12/22 00:30:31;;;;;;;2.28;1.02;;;10.90;96.40;;;15.02;78.41;100537.22;4986515;28;97896;-75
2020/12/22 00:32:58;;;;;;;1.17;1.10;;;10.90;96.30;;;15.08;78.10;100522.38;4997040;28;96888;-75
2020/12/22 00:35:26;;;;;;;0.93;0.70;;;11.00;96.30;;;15.21;78.57;100536.66;4997198;28;96754;-74
2020/12/22 00:37:54;;;;;;;6.22;1.25;;;11.00;96.40;;;15.25;78.37;100522.16;4994575;28;97342;-75
2020/12/22 00:40:21;;;;;;;1.20;1.10;;;11.10;96.40;;;15.33;78.32;100526.69;4998053;28;98029;-74
2020/12/22 00:42:49;;;;;;;0.63;0.57;;;11.10;96.30;;;15.39;77.87;100529.94;4997013;28;96894;-75
2020/12/22 00:45:18;;;;;;;2.30;1.20;;;11.20;96.40;;;15.41;78.11;100524.97;4990866;28;96811;-75
2020/12/22 00:47:46;;;;;;;0.52;0.52;;;11.10;96.30;;;15.36;77.87;100523.31;5004772;28;96835;-74
2020/12/22 00:50:13;;;;;;;1.80;1.45;;;11.20;96.30;;;15.36;77.79;100531.41;4983635;28;97203;-75
2020/12/22 00:52:41;;;;;;;2.75;1.10;;;11.20;96.30;;;15.43;77.85;100518.13;4996015;28;97713;-74
2020/12/22 00:55:15;;;;;;;0.50;0.50;;;11.20;96.30;;;15.55;78.10;100525.44;4985883;28;97114;-75
2020/12/22 00:57:45;;;;;;;0.70;0.68;;;11.30;96.40;;;15.56;78.26;100514.28;4998221;28;96840;-75
2020/12/22 01:00:16;;;;;;;0.60;0.60;;;11.30;96.40;;;15.63;78.53;100530.72;4993084;28;96965;-75
2020/12/22 01:02:44;;;;;;;4.53;1.27;;;11.40;96.40;;;15.67;78.67;100526.22;4993490;28;97065;-75
2020/12/22 01:05:12;;;;;;;0.90;0.68;;;11.40;96.40;;;15.71;78.51;100510.91;4995531;28;96820;-75
2020/12/22 01:07:39;;;;;;;1.77;1.58;;;11.40;96.40;;;15.74;77.36;100513.69;4998518;28;96956;-75
2020/12/22 01:10:07;;;;;;;0.55;0.45;;;11.50;96.40;;;15.75;77.82;100517.19;4999612;28;96833;-75
2020/12/22 01:12:35;;;;;;;1.13;1.05;;;11.50;96.40;;;15.77;78.47;100510.34;4996577;28;97845;-75
2020/12/22 01:15:04;;;;;;;0.85;0.63;;;11.50;96.30;;;15.79;78.04;100504.56;4996788;28;96891;-75
2020/12/22 01:17:31;;;;;;;1.80;1.13;;;11.60;96.60;;;15.86;77.68;100510.97;4996994;28;97020;-75
2020/12/22 01:20:00;;;;;;;1.10;1.02;;;11.60;96.30;;;15.90;78.11;100508.34;4997342;28;96814;-75
2020/12/22 01:22:32;;;;;;;;;;;11.70;96.40;;;15.88;78.58;100514.13;4996319;28;97062;-75
2020/12/22 01:25:00;;;;;;;1.08;0.68;;;11.70;96.30;;;15.88;78.76;100510.63;4997565;28;96868;-75
2020/12/22 01:27:31;;;;;;;0.93;0.82;;;11.70;96.30;;;15.96;77.62;100507.03;5006618;28;96962;-75
2020/12/22 01:29:59;;;;;;;1.08;0.82;;;11.70;96.30;;;15.99;77.60;100509.81;4999839;28;96901;-75
2020/12/22 01:32:26;;;;;;;0.73;0.73;;;11.70;96.30;;;16.00;78.50;100511.38;4999419;28;97664;-75
2020/12/22 01:34:54;;;;;;;0.80;0.70;;;11.70;96.30;;;15.99;77.78;100509.81;4995413;28;96866;-75
2020/12/22 01:37:22;;;;;;;0.73;0.65;;;11.80;96.30;;;16.08;78.18;100501.56;4994271;28;96985;-75
2020/12/22 01:39:50;;;;;;;3.90;1.42;;;11.80;96.30;;;16.09;78.29;100513.94;4996556;28;97057;-75
2020/12/22 01:42:17;;;;;;;0.65;0.65;;;11.80;96.30;;;16.13;78.40;100501.31;4996793;28;98078;-75
2020/12/22 01:44:45;;;;;;;0.93;0.75;;;11.80;96.30;;;16.19;78.41;100503.44;4995482;28;96892;-75
2020/12/22 01:47:14;;;;;;;0.60;0.50;;;11.90;96.40;;;16.19;77.54;100498.03;4981393;28;96834;-75
2020/12/22 01:49:42;;;;;;;1.40;1.08;;;11.90;96.40;;;16.22;78.40;100488.47;4995613;28;97817;-75
2020/12/22 01:52:11;;;;;;;0.57;0.57;;;11.90;96.40;;;16.35;78.24;100493.47;4994500;28;96747;-75
2020/12/22 01:54:39;;;;;;;0.50;0.50;;;12.00;96.40;;;16.36;78.15;100489.66;4998806;28;96835;-75
2020/12/22 01:57:11;;;;;;;1.25;0.90;;;12.00;96.40;;;16.36;77.51;100484.25;4995246;28;96974;-75
2020/12/22 01:59:39;;;;;;;0.38;0.38;;;12.00;96.40;;;16.32;78.02;100483.31;4993986;28;98968;-75
2020/12/22 02:02:08;;;;;;;1.92;1.10;;;12.10;96.40;;;16.32;77.85;100477.13;4998737;28;97802;-75
2020/12/22 02:04:36;;;;;;;0.95;0.88;;;12.10;96.40;;;16.37;78.17;100485.81;4984112;28;96782;-76
2020/12/22 02:07:05;;;;;;;0.60;0.60;;;12.10;96.40;;;16.40;77.69;100477.03;4997992;28;97000;-75
2020/12/22 02:09:32;;;;;;;1.95;1.48;;;12.20;96.40;;;16.42;77.55;100476.66;5001496;28;97917;-75
2020/12/22 02:12:04;;;;;;;0.88;0.88;;;12.20;96.40;;;16.43;77.76;100478.22;5000843;28;96838;-76
2020/12/22 02:14:38;;;;;;;1.65;1.27;;;12.20;96.40;;;16.46;78.38;100472.13;4996121;28;96749;-76
2020/12/22 02:17:06;;;;;;;1.17;0.73;;;12.20;96.40;;;16.44;78.35;100467.06;5001244;28;97046;-76
2020/12/22 02:19:34;;;;;;;0.35;0.35;;;12.20;96.40;;;16.46;77.76;100483.75;5004901;28;97828;-76
2020/12/22 02:22:04;;;;;;;1.17;0.82;;;12.30;96.40;;;16.43;77.96;100479.03;4997882;28;97625;-76
2020/12/22 02:24:33;;;;;;;1.23;1.13;;;12.30;96.40;;;16.53;77.87;100483.16;5000296;28;96665;-76
2020/12/22 02:27:02;;;;;;;1.70;1.20;;;12.30;96.40;;;16.53;78.42;100493.97;5001321;28;96789;-76
2020/12/22 02:29:31;;;;;;;1.17;1.08;;;12.40;96.40;;;16.53;77.71;100491.25;5001786;28;96692;-75
2020/12/22 02:31:59;;;;;;;1.15;0.85;;;12.40;96.40;;;16.57;78.28;100494.84;5000817;28;97657;-75
2020/12/22 02:34:30;;;;;;;2.13;1.13;;;12.40;96.30;;;16.62;78.76;100498.06;4998573;28;96673;-75
2020/12/22 02:36:58;;;;;;;0.10;0.10;;;12.40;96.30;;;16.61;78.18;100490.31;4987727;28;96902;-75
2020/12/22 02:39:27;;;;;;;0.38;0.38;;;12.40;96.30;;;16.58;78.20;100499.88;4999628;28;97862;-76
2020/12/22 02:41:54;;;;;;;0.28;0.28;;;12.40;96.30;;;16.54;78.22;100504.44;4998560;28;97266;-75
2020/12/22 02:44:21;;;;;;;0.17;0.17;;;12.40;96.30;;;16.56;78.32;100495.97;4993114;28;97071;-75
2020/12/22 02:46:51;;;;;;;3.30;1.13;;;12.50;96.40;;;16.55;79.17;100499.81;4998430;28;96942;-75
2020/12/22 02:49:18;;;;;;;1.45;0.65;;;12.50;96.30;;;16.50;78.83;100500.03;5000571;28;97986;-75
2020/12/22 02:51:46;;;;;;;1.30;0.98;;;12.50;96.30;;;16.50;78.54;100508.97;4997360;28;97365;-75
2020/12/22 02:54:13;;;;;;;0.30;0.30;;;12.50;96.30;;;16.52;78.63;100509.41;5000701;28;96717;-76
2020/12/22 02:56:42;;;;;;;1.05;0.52;;;12.50;96.30;;;16.62;79.03;100498.06;4998872;28;100938;-76
2020/12/22 02:59:09;;;;;;;0.40;0.40;;;12.50;96.30;;;16.72;78.04;100510.31;4997733;28;98099;-76
2020/12/22 03:01:40;;;;;;;0.30;0.30;;;12.60;96.40;;;16.76;78.70;100497.63;4998466;28;98000;-75
2020/12/22 03:04:08;;;;;;;10.07;0.40;;;12.60;96.40;;;16.71;78.68;100497.91;5006314;28;96848;-76
2020/12/22 03:06:35;;;;;;;0.10;0.10;;;12.60;96.40;;;16.80;78.65;100493.91;4999963;28;96852;-75
2020/12/22 03:09:04;;;;;;;0.10;0.10;;;12.60;96.40;;;16.81;78.42;100492.78;4997174;28;97877;-75
2020/12/22 03:11:32;;;;;;;8.85;1.23;;;12.60;96.40;;;16.83;78.33;100493.19;4999701;28;97173;-75
2020/12/22 03:14:02;;;;;;;1.73;0.65;;;12.60;96.40;;;16.79;77.77;100492.34;5001632;28;96804;-75
2020/12/22 03:16:32;;;;;;;0.20;0.20;;;12.60;96.30;;;16.77;78.51;100496.50;4999345;27;96795;-75
2020/12/22 03:19:00;;;;;;;0.20;0.17;;;12.60;96.30;;;16.83;78.78;100493.19;4998088;28;97815;-75
2020/12/22 03:21:30;;;;;;;0.20;0.20;;;12.60;96.30;;;16.78;78.76;100493.47;4998223;28;97716;-75
2020/12/22 03:23:57;;;;;;;0.47;0.28;;;12.60;96.30;;;16.83;78.77;100493.19;4997081;28;96803;-75
2020/12/22 03:26:25;;;;;;;0.73;0.22;;;12.60;96.30;;;16.84;78.64;100504.81;5001333;28;97102;-75
2020/12/22 03:28:53;;;;;;;0.55;0.55;;;12.70;96.30;;;16.78;79.13;100498.09;5000309;28;97265;-75
2020/12/22 03:31:21;;;;;;;0.50;0.20;;;12.70;96.30;;;16.80;79.05;100502.03;5007283;28;97649;-75
2020/12/22 03:33:49;;;;;;;0.38;0.38;;;12.70;96.40;;;16.83;78.87;100504.03;4998323;28;97095;-75
2020/12/22 03:36:16;;;;;;;0.25;0.25;;;12.70;96.40;;;16.88;78.30;100503.00;5001930;28;96863;-76
2020/12/22 03:38:44;;;;;;;0.65;0.65;;;12.70;96.40;;;16.86;78.43;100508.75;4996921;28;97812;-75
2020/12/22 03:41:12;;;;;;;0.00;0.00;;;12.70;96.40;;;16.84;78.75;100512.94;5000076;28;98070;-76
2020/12/22 03:43:39;;;;;;;2.40;0.63;;;12.70;96.30;;;16.84;78.48;100505.59;4996540;28;97307;-76
2020/12/22 03:46:07;;;;;;;0.20;0.20;;;12.70;96.30;;;16.87;78.27;100512.25;4996294;28;96673;-76
2020/12/22 03:48:36;;;;;;;0.10;0.10;;;12.70;96.40;;;16.89;78.73;100513.44;4997296;28;97748;-76
2020/12/22 03:51:05;;;;;;;0.35;0.35;;;12.70;96.40;;;16.84;78.71;100523.78;4998090;28;96894;-76
2020/12/22 03:53:33;;;;;;;0.15;0.15;;;12.70;96.30;;;16.81;78.47;100543.38;5014231;28;96880;-76
2020/12/22 03:56:02;;;;;;;0.28;0.28;;;12.70;96.40;;;16.82;78.72;100517.94;4995249;28;97047;-75
2020/12/22 03:58:31;;;;;;;0.10;0.10;;;12.70;96.30;;;16.84;78.72;100521.06;4999936;28;98917;-75
2020/12/22 04:00:59;;;;;;;0.00;0.00;;;12.70;96.40;;;16.86;78.77;100522.28;5013694;28;96773;-75
2020/12/22 04:03:27;;;;;;;0.00;0.00;;;12.70;96.30;;;16.89;79.01;100531.63;5002031;28;96816;-75
2020/12/22 04:05:55;;;;;;;0.05;0.05;;;12.80;96.40;;;16.82;78.72;100536.88;5000814;28;97159;-75
2020/12/22 04:08:23;;;;;;;0.00;0.00;;;12.80;96.40;;;16.80;79.39;100531.78;5002827;28;97940;-75
2020/12/22 04:10:51;;;;;;;0.10;0.10;;;12.80;96.40;;;16.88;78.11;100538.19;4997817;28;97230;-75
2020/12/22 04:13:18;;;;;;;0.00;0.00;;;12.80;96.40;;;16.97;78.18;100553.13;4997368;28;96791;-75
2020/12/22 04:15:45;;;;;;;0.10;0.10;;;12.80;96.40;;;17.09;78.07;100557.66;4996216;28;96692;-75
2020/12/22 04:18:14;;;;;;;0.10;0.10;;;12.80;96.40;;;17.06;77.60;100559.16;4996482;28;98066;-75
2020/12/22 04:20:41;;;;;;;0.45;0.20;;;12.80;96.30;;;17.04;77.46;100568.75;4997622;28;97269;-76
2020/12/22 04:23:10;;;;;;;0.10;0.10;;;12.80;96.30;;;17.04;78.09;100574.16;4995378;28;96945;-76
2020/12/22 04:25:37;;;;;;;0.10;0.10;;;12.80;96.30;;;17.01;77.91;100572.13;4996796;28;97179;-76
2020/12/22 04:28:06;;;;;;;0.00;0.00;;;12.70;96.30;;;16.78;78.27;100577.34;4988351;28;97919;-76
2020/12/22 04:30:34;;;;;;;0.20;0.20;;;12.70;96.30;;;16.71;78.50;100581.78;4992980;28;96717;-76
2020/12/22 04:33:04;;;;;;;0.30;0.30;;;12.70;96.30;;;16.65;78.99;100585.88;4997038;28;96677;-76
2020/12/22 04:35:32;;;;;;;0.20;0.20;;;12.70;96.30;;;16.63;79.40;100588.91;4996306;28;96947;-76
2020/12/22 04:38:01;;;;;;;0.17;0.17;;;12.70;96.30;;;16.64;78.70;100593.19;4988588;28;98372;-75
2020/12/22 04:40:32;;;;;;;0.30;0.30;;;12.70;96.30;;;16.62;79.42;100587.34;4999021;28;96936;-75
2020/12/22 04:43:03;;;;;;;0.00;0.00;;;12.70;96.30;;;16.59;79.68;100590.72;4994966;28;96702;-75
2020/12/22 04:45:31;;;;;;;0.10;0.10;;;12.70;96.30;;;16.59;79.52;100600.78;4995507;28;96913;-75
2020/12/22 04:47:59;;;;;;;0.10;0.10;;;12.60;96.30;;;16.61;79.64;100593.09;4994036;28;97749;-75
2020/12/22 04:50:34;;;;;;;0.40;0.25;;;12.60;96.30;;;16.61;78.87;100596.59;4995692;28;97619;-75
2020/12/22 04:53:04;;;;;;;0.55;0.55;;;12.60;96.30;;;16.64;78.70;100609.41;4996333;28;96814;-75
2020/12/22 04:55:34;;;;;;;0.10;0.10;;;12.60;96.30;;;16.71;79.03;100608.84;4994372;28;97164;-75
2020/12/22 04:58:02;;;;;;;6.65;0.52;;;12.60;96.30;;;16.61;79.22;100609.34;5005756;28;97346;-75
2020/12/22 05:00:31;;;;;;;0.30;0.30;;;12.60;96.30;;;16.65;79.24;100610.22;4998105;28;97409;-75
2020/12/22 05:03:02;;;;;;;0.45;0.43;;;12.60;96.30;;;16.59;78.50;100614.31;4997763;28;96832;-75
2020/12/22 05:05:31;;;;;;;1.00;0.50;;;12.60;96.30;;;16.58;79.71;100615.44;4998346;28;97362;-75
2020/12/22 05:07:59;;;;;;;0.32;0.32;;;12.60;96.30;;;16.55;79.97;100611.50;4996480;28;97180;-74
2020/12/22 05:10:30;;;;;;;1.33;0.77;;;12.60;96.30;;;16.56;79.12;100617.69;5005171;28;97837;-74
2020/12/22 05:12:58;;;;;;;0.43;0.43;;;12.60;96.30;;;16.60;78.45;100616.66;4995079;28;96779;-74
2020/12/22 05:15:27;;;;;;;1.33;0.82;;;12.60;96.30;;;16.59;78.64;100617.00;5006394;28;96783;-75
2020/12/22 05:18:02;;;;;;;0.40;0.40;;;12.60;96.30;;;16.53;79.73;100618.41;4995772;28;97825;-74
2020/12/22 05:20:31;;;;;;;0.57;0.43;;;12.60;96.30;;;16.51;78.86;100620.63;4999296;28;96783;-74
2020/12/22 05:22:59;;;;;;;11.40;0.30;;;12.60;96.30;;;16.54;78.79;100620.72;4996741;28;97078;-74
2020/12/22 05:25:29;;;;;;;0.20;0.20;;;12.50;96.30;;;16.58;78.94;100624.31;4998333;28;96959;-75
2020/12/22 05:27:59;;;;;;;0.20;0.10;;;12.50;96.30;;;16.57;79.15;100624.69;4995722;28;98224;-74
2020/12/22 05:30:31;;;;;;;0.28;0.28;;;12.50;96.30;;;16.57;79.24;100632.81;4994280;28;97371;-75
2020/12/22 05:32:59;;;;;;;0.10;0.10;;;12.50;96.30;;;16.61;78.49;100641.81;4997579;28;96819;-74
2020/12/22 05:35:39;;;;;;;0.25;0.25;;;12.50;96.30;;;16.58;78.84;100642.50;4994069;28;97834;-75
2020/12/22 05:38:07;;;;;;;0.10;0.10;;;12.50;96.30;;;16.60;79.09;100651.81;4996179;28;97982;-75
2020/12/22 05:40:39;;;;;;;0.20;0.20;;;12.50;96.30;;;16.60;79.45;100645.63;4994026;28;97690;-74
2020/12/22 05:43:08;;;;;;;0.10;0.10;;;12.50;96.30;;;16.54;79.30;100657.84;4990124;28;96889;-74
2020/12/22 05:45:40;;;;;;;0.25;0.25;;;12.50;96.30;;;16.57;78.62;100655.22;4995358;28;96888;-75
2020/12/22 05:48:15;;;;;;;0.05;0.05;;;12.50;96.30;;;16.55;78.29;100660.19;5005401;28;97984;-75
2020/12/22 05:50:50;;;;;;;1.20;0.20;;;12.50;96.30;;;16.55;78.85;100673.72;4999510;28;97553;-75
2020/12/22 05:53:24;;;;;;;0.47;0.38;;;12.50;96.30;;;16.59;78.20;100663.00;4999736;28;97453;-74
2020/12/22 05:55:52;;;;;;;0.10;0.10;;;12.50;96.40;;;16.62;78.63;100670.44;4990646;28;96998;-75
2020/12/22 05:58:30;;;;;;;0.43;0.43;;;12.50;96.30;;;16.65;79.04;100669.75;5002874;28;96677;-75
2020/12/22 06:01:02;;;;;;;0.22;0.22;;;12.50;96.40;;;16.63;78.88;100661.19;5006589;28;97731;-75
2020/12/22 06:03:31;;;;;;;0.20;0.20;;;12.50;96.30;;;16.59;78.55;100655.66;5000205;28;97193;-75
2020/12/22 06:05:59;;;;;;;0.22;0.22;;;12.50;96.30;;;16.48;78.95;100659.97;4999902;28;97025;-74
2020/12/22 06:08:31;;;;;;;13.25;0.90;;;12.50;96.30;;;16.47;79.43;100653.00;4997294;28;96718;-74
2020/12/22 06:11:02;;;;;;;2.70;0.30;;;12.50;96.30;;;16.45;79.30;100660.66;4984839;28;96958;-74
2020/12/22 06:13:32;;;;;;;0.32;0.32;;;12.50;96.30;;;16.49;78.72;100658.84;5012574;28;96709;-74
2020/12/22 06:16:02;;;;;;;0.57;0.57;;;12.50;96.30;;;16.45;78.70;100670.69;4984430;28;96800;-74
2020/12/22 06:18:31;;;;;;;0.40;0.30;;;12.50;96.30;;;16.46;79.27;100666.84;5001006;28;96761;-74
2020/12/22 06:20:59;;;;;;;0.93;0.52;;;12.40;96.30;;;16.45;79.61;100676.09;4999062;28;97737;-74
2020/12/22 06:23:30;;;;;;;0.20;0.20;;;12.40;96.30;;;16.39;79.56;100682.88;5000667;28;96718;-74
2020/12/22 06:26:04;;;;;;;1.77;0.70;;;12.40;96.30;;;16.44;79.27;100680.72;5012189;28;96946;-74
2020/12/22 06:28:34;;;;;;;0.15;0.15;;;12.40;96.30;;;16.44;78.87;100686.13;4990247;28;96850;-75
2020/12/22 06:31:20;;;;;;;0.00;0.00;;;12.50;96.30;;;16.45;79.51;100689.63;5013997;28;96808;-74
2020/12/22 06:33:48;;;;;;;0.43;0.22;;;12.50;96.40;;;16.44;79.28;100690.75;5001826;28;97307;-74
2020/12/22 06:36:18;;;;;;;9.05;0.55;;;12.40;96.30;;;16.48;79.46;100697.84;5000920;28;96888;-75
2020/12/22 06:38:56;;;;;;;0.35;0.30;;;12.50;96.30;;;16.48;78.72;100700.56;5007623;28;97990;-75
2020/12/22 06:41:46;;;;;;;0.28;0.28;;;12.40;96.30;;;16.48;78.21;100705.97;5001484;28;97695;-75
2020/12/22 06:44:27;;;;;;;0.35;0.35;;;12.40;96.30;;;16.51;78.68;100705.28;5004829;28;97410;-74
2020/12/22 06:46:56;;;;;;;0.10;0.10;;;12.40;96.30;;;16.44;79.15;100713.19;4997901;28;96982;-75
2020/12/22 06:49:51;;;;;;;0.40;0.30;;;12.40;96.30;;;16.44;79.04;100713.19;4995939;28;98966;-75
2020/12/22 06:52:34;;;;;;;3.20;0.38;;;12.40;96.30;;;16.36;79.75;100721.41;4999952;28;96860;-74
2020/12/22 06:55:08;;;;;;;0.10;0.10;;;12.40;96.30;;;16.34;79.83;100723.66;4996228;28;96809;-74
2020/12/22 06:57:48;;;;;;;1.08;0.75;;;12.40;96.30;;;16.36;78.82;100722.22;5006475;28;96919;-75
2020/12/22 07:00:37;;;;;;;3.22;0.80;;;12.40;96.30;;;16.35;78.74;100725.25;5002794;28;97031;-74
2020/12/22 07:03:16;;;;;;;0.15;0.13;;;12.40;96.30;;;16.35;78.56;100730.66;4997364;28;98199;-75
2020/12/22 07:05:47;;;;;;;0.15;0.15;;;12.40;96.30;;;16.35;79.63;100734.13;5006426;28;96735;-75
2020/12/22 07:08:17;;;;;;;0.20;0.20;;;12.40;96.30;;;16.37;78.74;100731.09;5000067;28;96670;-75
2020/12/22 07:10:50;;;;;;;8.38;0.25;;;12.30;96.30;;;16.35;78.68;100734.13;5011463;28;97945;-74
2020/12/22 07:13:19;;;;;;;0.05;0.05;;;12.30;96.30;;;16.36;78.46;100737.63;4998239;28;97095;-75
2020/12/22 07:15:50;;;;;;;0.10;0.10;;;12.30;96.30;;;16.34;78.32;100729.84;5006534;28;97366;-74
2020/12/22 07:18:28;;;;;;;5.32;0.22;;;12.30;96.30;;;16.32;79.01;100723.97;4999777;28;96844;-75
2020/12/22 07:20:58;;;;;;;0.13;0.13;;;12.30;96.30;;;16.24;78.46;100740.34;5006125;28;97950;-75
2020/12/22 07:23:26;;;;;;;0.30;0.30;;;12.30;96.30;;;16.19;78.47;100741.34;4990360;28;97824;-74
2020/12/22 07:25:57;;;;;;;0.30;0.30;;;12.30;96.30;;;16.25;79.07;100745.38;4999093;28;96618;-74
2020/12/22 07:28:25;;;;;;;0.20;0.20;;;12.20;96.20;;;16.27;78.50;100740.44;5008646;28;97356;-75
2020/12/22 07:30:53;;;;;;;0.57;0.45;;;12.20;96.30;;;16.30;79.02;100755.19;4996766;28;97884;-75
2020/12/22 07:33:21;;;;;;;0.10;0.10;;;12.20;96.30;;;16.35;79.30;100763.09;4991984;28;96957;-75
2020/12/22 07:35:49;;;;;;;1.98;0.85;;;12.20;96.30;;;16.42;78.57;100784.97;4999101;28;96998;-75
2020/12/22 07:38:17;;;;;;;9.23;0.40;;;12.20;96.30;;;16.41;78.66;100765.25;5007638;28;96985;-75
2020/12/22 07:40:45;;;;;;;0.35;0.35;;;12.30;96.40;;;16.41;78.75;100783.38;4989609;28;96886;-75
2020/12/22 07:43:14;;;;;;;0.20;0.20;;;12.30;96.30;;;16.40;79.12;100779.91;4985095;28;97853;-75
2020/12/22 07:45:50;;;;;;;5.40;0.93;;;12.30;96.30;;;16.42;77.98;100787.66;5007685;28;96844;-75
2020/12/22 07:48:19;;;;;;;4.57;1.45;;;12.30;96.30;;;16.46;78.17;100785.84;5013858;28;97327;-74
2020/12/22 07:50:53;;;;;;;2.75;1.02;;;12.30;96.30;;;16.47;77.76;100795.53;4997387;28;97954;-75
2020/12/22 07:53:21;;;;;;;0.25;0.17;;;12.30;96.30;;;16.45;78.42;100795.09;5000214;28;99687;-75
2020/12/22 07:55:49;;;;;;;0.80;0.45;;;12.30;96.30;;;16.42;78.89;100804.69;4996028;28;96917;-75
2020/12/22 07:58:17;;;;;;;0.38;0.20;;;12.30;96.30;;;16.37;78.70;100804.13;5008319;28;97439;-75
2020/12/22 08:00:46;;;;;;;8.15;1.25;;;12.30;96.30;;;16.39;78.29;100812.69;5006575;28;98950;-75
2020/12/22 08:03:18;;;;;;;1.20;1.10;;;12.30;96.30;;;16.44;78.20;100804.34;4996314;28;98326;-75
2020/12/22 08:06:00;;;;;;;1.23;0.40;;;12.30;96.30;;;16.46;78.82;100812.91;4997028;28;96895;-75
2020/12/22 08:08:32;;;;;;;0.20;0.20;;;12.30;96.30;;;16.51;78.10;100809.97;4996326;28;96945;-74
2020/12/22 08:11:00;;;;;;;0.38;0.38;;;12.30;96.30;;;16.53;78.55;100816.63;4994827;28;96651;-74
2020/12/22 08:13:33;;;;;;;1.02;0.30;;;12.30;96.20;;;16.60;77.38;100819.53;4994047;28;98125;-74
2020/12/22 08:16:04;;;;;;;0.50;0.50;;;12.30;96.30;;;16.55;78.50;100827.13;4992089;28;96706;-74
2020/12/22 08:18:35;;;;;;;3.03;0.20;;;12.30;96.20;;;16.51;77.70;100835.13;4994819;28;97003;-74
2020/12/22 08:21:05;;;;;;;14.35;0.43;;;12.30;96.20;;;16.58;78.05;100837.25;4992853;28;97353;-74
2020/12/22 08:23:33;;;;;;;1.05;0.68;;;12.30;96.20;;;16.65;78.14;100843.66;5002656;28;97527;-74
2020/12/22 08:26:05;;;;;;;6.97;0.30;;;12.30;96.20;;;16.66;77.17;100845.25;4995781;28;96926;-74
2020/12/22 08:28:35;;;;;;;0.10;0.10;;;12.30;96.20;;;16.70;77.34;100853.47;4992409;28;97176;-73
2020/12/22 08:31:15;;;;;;;2.40;0.65;;;12.30;96.20;;;16.62;77.35;100857.88;4983782;28;99864;-74
2020/12/22 08:33:54;;;;;;;0.35;0.15;;;12.40;96.20;;;16.64;78.24;100852.91;4993610;28;97493;-73
2020/12/22 08:36:26;;;;;;;0.20;0.20;;;12.30;96.20;;;16.63;77.30;100872.97;4991628;28;97339;-73
2020/12/22 08:39:18;;;;;;;0.40;0.40;;;12.40;96.20;;;16.64;77.53;100871.84;4994961;28;97293;-73
2020/12/22 08:41:51;;;;;;;0.20;0.20;;;12.30;96.20;;;16.66;77.73;100869.59;4998478;28;97784;-73
2020/12/22 08:44:20;;;;;;;0.63;0.22;;;12.40;96.20;;;16.82;77.82;100875.13;4997493;28;98184;-75
2020/12/22 08:46:48;;;;;;;0.38;0.25;;;12.40;96.20;;;17.01;76.83;100869.91;4993001;28;96960;-74
2020/12/22 08:49:21;;;;;;;0.10;0.10;;;12.50;96.10;;;17.16;76.43;100877.34;4994020;28;97034;-74
2020/12/22 08:51:52;;;;;;;1.55;0.30;;;12.60;96.10;;;17.27;76.24;100881.97;5004495;28;96916;-74
2020/12/22 08:54:26;;;;;;;0.10;0.10;;;12.60;96.00;;;17.15;76.68;100890.09;4996075;28;97630;-74
2020/12/22 08:57:09;;;;;;;0.63;0.40;;;12.70;95.90;;;17.06;76.59;100894.03;4997427;28;97195;-74
2020/12/22 08:59:38;;;;;;;0.10;0.10;;;12.70;95.90;;;17.05;76.76;100898.69;4994672;28;96693;-74
2020/12/22 09:02:07;;;;;;;0.20;0.20;;;12.70;95.90;;;17.02;76.48;100906.69;4977911;28;96995;-75
2020/12/22 09:04:35;;;;;;;6.22;0.47;;;12.60;95.80;;;17.01;76.81;100913.22;4995482;28;96766;-74
2020/12/22 09:07:11;;;;;;;1.45;0.80;;;12.60;95.80;;;16.90;77.54;100915.59;4984456;28;97474;-74
2020/12/22 09:09:39;;;;;;;0.10;0.10;;;12.60;95.90;;;16.92;77.48;100928.81;4992569;28;96970;-74
2020/12/22 09:12:10;;;;;;;8.32;0.40;;;12.60;95.90;;;16.93;76.67;100936.56;4989425;28;98704;-74
2020/12/22 09:14:40;;;;;;;1.65;0.75;;;12.60;95.90;;;16.89;77.64;100932.19;4990036;28;96849;-75
2020/12/22 09:17:08;;;;;;;0.00;0.00;;;12.60;95.90;;;16.90;77.12;100933.78;4992448;28;96847;-74
2020/12/22 09:19:46;;;;;;;0.68;0.25;;;12.60;95.90;;;16.90;77.60;100931.06;4991362;28;97674;-74
2020/12/22 09:22:23;;;;;;;0.50;0.50;;;12.60;95.90;;;16.87;77.62;100937.16;4992238;28;97949;-74
2020/12/22 09:24:52;;;;;;;0.10;0.10;;;12.60;95.90;;;16.81;77.49;100938.47;4980414;28;97882;-74
2020/12/22 09:27:29;;;;;;;0.55;0.38;;;12.60;95.90;;;16.81;77.88;100947.41;4992700;28;96903;-74
2020/12/22 09:29:58;;;;;;;3.05;0.85;;;12.60;95.90;;;16.81;77.22;100960.94;4993665;28;96990;-74
2020/12/22 09:32:27;;;;;;;6.93;0.25;;;12.50;95.90;;;16.80;78.03;100963.97;4990075;28;97866;-74
2020/12/22 09:34:56;;;;;;;0.88;0.38;;;12.50;95.90;;;16.77;77.35;100975.47;4991149;28;98476;-74
2020/12/22 09:37:28;;;;;;;11.98;0.57;;;12.50;95.90;;;16.76;78.06;100968.47;4992018;28;96889;-74
2020/12/22 09:39:56;;;;;;;3.63;0.60;;;12.50;95.90;;;16.80;77.13;100985.63;4990832;28;96873;-74
2020/12/22 09:42:27;;;;;;;0.30;0.28;;;12.50;95.90;;;16.80;77.24;100996.44;4992451;28;96851;-74
2020/12/22 09:44:55;;;;;;;7.53;1.05;;;12.50;95.90;;;16.80;78.07;101001.84;4995169;28;97481;-74
2020/12/22 09:47:23;;;;;;;3.03;1.58;;;12.50;96.00;;;16.80;77.92;100999.94;4993959;28;97262;-73
2020/12/22 09:49:50;;;;;;;3.08;0.75;;;12.50;96.00;;;16.77;78.04;101014.16;4990531;28;97690;-73
2020/12/22 09:52:19;;;;;;;1.60;0.45;;;12.50;96.00;;;16.73;78.29;101025.97;4992962;28;97875;-73
2020/12/22 09:54:49;;;;;;;0.45;0.45;;;12.50;96.00;;;16.68;78.36;101023.50;4994672;27;96720;-73
2020/12/22 09:57:17;;;;;;;0.80;0.50;;;12.50;96.00;;;16.71;77.84;101039.88;4994210;28;96826;-74
2020/12/22 09:59:45;;;;;;;0.70;0.68;;;12.50;96.00;;;16.73;77.51;101034.09;4993922;28;97357;-72
2020/12/22 10:02:12;;;;;;;14.38;0.82;;;12.50;96.00;;;16.72;78.28;101035.22;5005709;28;97168;-73
2020/12/22 10:04:40;;;;;;;2.40;0.90;;;12.50;96.00;;;16.74;77.37;101047.31;4989458;28;98781;-73
2020/12/22 10:07:08;;;;;;;0.47;0.17;;;12.40;96.00;;;16.77;77.76;101045.81;4994305;27;96768;-73
2020/12/22 10:09:36;;;;;;;0.30;0.30;;;12.40;96.00;;;16.87;77.42;101051.59;4993194;28;97533;-73
2020/12/22 10:12:05;;;;;;;8.25;1.30;;;12.50;96.00;;;16.93;77.04;101042.13;4989528;28;98125;-73
2020/12/22 10:14:33;;;;;;;4.47;1.33;;;12.50;96.00;;;16.91;77.68;101041.69;4994792;28;97645;-72
2020/12/22 10:17:06;;;;;;;0.85;0.63;;;12.50;96.00;;;16.89;77.84;101051.28;4995692;28;96826;-74
2020/12/22 10:19:34;;;;;;;4.07;0.93;;;12.50;96.00;;;16.96;77.57;101052.28;5002439;28;96863;-74
2020/12/22 10:22:05;;;;;;;0.32;0.32;;;12.50;96.00;;;17.09;76.66;101048.50;4990939;28;98332;-74
2020/12/22 10:24:38;;;;;;;4.95;0.85;;;12.60;96.00;;;17.19;76.93;101058.09;4980036;28;97472;-74